sensor_id;sensor_type;location;lat;lon;timestamp;P1;durP1;ratioP1;P2;durP2;ratioP2
8622;SDS011;4349;47.552;8.904;2024-03-08T00:00:28;29.43;;;22.00;;
8622;SDS011;4349;47.552;8.904;2024-03-08T00:02:58;27.00;;;21.23;;
8622;SDS011;4349;47.552;8.904;2024-03-08T00:05:27;29.40;;;22.33;;
8622;SDS011;4349;47.552;8.904;2024-03-08T00:07:55;27.63;;;20.20;;
8622;SDS011;4349;47.552;8.904;2024-03-08T00:10:24;30.27;;;22.07;;
8622;SDS011;4349;47.552;8.904;2024-03-08T00:12:54;25.87;;;21.30;;
8622;SDS011;4349;47.552;8.904;2024-03-08T00:15:21;25.57;;;19.43;;
8622;SDS011;4349;47.552;8.904;2024-03-08T00:17:49;26.43;;;20.33;;
8622;SDS011;4349;47.552;8.904;2024-03-08T00:20:17;26.20;;;20.93;;
8622;SDS011;4349;47.552;8.904;2024-03-08T00:22:45;27.73;;;20.93;;
8622;SDS011;4349;47.552;8.904;2024-03-08T00:25:14;31.00;;;23.37;;
8622;SDS011;4349;47.552;8.904;2024-03-08T00:27:43;29.73;;;21.67;;
8622;SDS011;4349;47.552;8.904;2024-03-08T00:30:11;30.73;;;21.33;;
8622;SDS011;4349;47.552;8.904;2024-03-08T00:32:40;29.70;;;22.07;;
8622;SDS011;4349;47.552;8.904;2024-03-08T00:35:08;27.83;;;21.00;;
8622;SDS011;4349;47.552;8.904;2024-03-08T00:37:36;28.47;;;20.77;;
8622;SDS011;4349;47.552;8.904;2024-03-08T00:40:04;29.03;;;21.17;;
8622;SDS011;4349;47.552;8.904;2024-03-08T00:42:33;28.57;;;20.20;;
8622;SDS011;4349;47.552;8.904;2024-03-08T00:45:03;25.63;;;19.97;;
8622;SDS011;4349;47.552;8.904;2024-03-08T00:47:30;26.97;;;20.53;;
8622;SDS011;4349;47.552;8.904;2024-03-08T00:49:58;29.00;;;20.67;;
8622;SDS011;4349;47.552;8.904;2024-03-08T00:52:26;30.07;;;22.33;;
8622;SDS011;4349;47.552;8.904;2024-03-08T00:54:53;29.97;;;21.40;;
8622;SDS011;4349;47.552;8.904;2024-03-08T00:57:21;26.83;;;19.87;;
8622;SDS011;4349;47.552;8.904;2024-03-08T00:59:49;30.33;;;21.87;;
8622;SDS011;4349;47.552;8.904;2024-03-08T01:02:18;27.30;;;20.40;;
8622;SDS011;4349;47.552;8.904;2024-03-08T01:04:45;31.60;;;21.80;;
8622;SDS011;4349;47.552;8.904;2024-03-08T01:07:14;25.23;;;19.93;;
8622;SDS011;4349;47.552;8.904;2024-03-08T01:09:42;25.47;;;19.73;;
8622;SDS011;4349;47.552;8.904;2024-03-08T01:12:09;28.87;;;21.67;;
8622;SDS011;4349;47.552;8.904;2024-03-08T01:14:37;26.53;;;20.43;;
8622;SDS011;4349;47.552;8.904;2024-03-08T01:17:05;26.67;;;20.50;;
8622;SDS011;4349;47.552;8.904;2024-03-08T01:19:34;29.47;;;21.53;;
8622;SDS011;4349;47.552;8.904;2024-03-08T01:22:02;27.80;;;20.50;;
8622;SDS011;4349;47.552;8.904;2024-03-08T01:24:30;26.73;;;20.07;;
8622;SDS011;4349;47.552;8.904;2024-03-08T01:26:58;29.00;;;20.33;;
8622;SDS011;4349;47.552;8.904;2024-03-08T01:29:26;31.67;;;22.00;;
8622;SDS011;4349;47.552;8.904;2024-03-08T01:31:54;28.07;;;20.83;;
8622;SDS011;4349;47.552;8.904;2024-03-08T01:34:22;29.43;;;21.50;;
8622;SDS011;4349;47.552;8.904;2024-03-08T01:36:51;30.13;;;23.00;;
8622;SDS011;4349;47.552;8.904;2024-03-08T01:39:18;24.87;;;19.33;;
8622;SDS011;4349;47.552;8.904;2024-03-08T01:41:48;24.93;;;18.93;;
8622;SDS011;4349;47.552;8.904;2024-03-08T01:44:15;26.43;;;20.20;;
8622;SDS011;4349;47.552;8.904;2024-03-08T01:46:44;28.07;;;20.40;;
8622;SDS011;4349;47.552;8.904;2024-03-08T01:49:11;28.00;;;20.30;;
8622;SDS011;4349;47.552;8.904;2024-03-08T01:51:40;24.83;;;18.80;;
8622;SDS011;4349;47.552;8.904;2024-03-08T01:54:09;27.70;;;20.80;;
8622;SDS011;4349;47.552;8.904;2024-03-08T01:56:39;28.77;;;22.60;;
8622;SDS011;4349;47.552;8.904;2024-03-08T01:59:07;25.67;;;19.83;;
8622;SDS011;4349;47.552;8.904;2024-03-08T02:01:34;27.50;;;21.00;;
8622;SDS011;4349;47.552;8.904;2024-03-08T02:04:02;23.93;;;19.37;;
8622;SDS011;4349;47.552;8.904;2024-03-08T02:06:33;27.80;;;20.00;;
8622;SDS011;4349;47.552;8.904;2024-03-08T02:09:01;26.00;;;19.20;;
8622;SDS011;4349;47.552;8.904;2024-03-08T02:11:33;24.87;;;18.73;;
8622;SDS011;4349;47.552;8.904;2024-03-08T02:14:02;27.03;;;19.83;;
8622;SDS011;4349;47.552;8.904;2024-03-08T02:16:32;25.80;;;19.07;;
8622;SDS011;4349;47.552;8.904;2024-03-08T02:19:00;26.40;;;20.63;;
8622;SDS011;4349;47.552;8.904;2024-03-08T02:21:29;22.97;;;18.23;;
8622;SDS011;4349;47.552;8.904;2024-03-08T02:23:57;25.83;;;19.50;;
8622;SDS011;4349;47.552;8.904;2024-03-08T02:26:25;26.70;;;20.53;;
8622;SDS011;4349;47.552;8.904;2024-03-08T02:28:53;24.07;;;18.83;;
8622;SDS011;4349;47.552;8.904;2024-03-08T02:31:22;26.63;;;18.83;;
8622;SDS011;4349;47.552;8.904;2024-03-08T02:33:49;27.77;;;21.47;;
8622;SDS011;4349;47.552;8.904;2024-03-08T02:36:17;23.63;;;18.43;;
8622;SDS011;4349;47.552;8.904;2024-03-08T02:38:46;24.73;;;18.50;;
8622;SDS011;4349;47.552;8.904;2024-03-08T02:41:14;26.23;;;19.37;;
8622;SDS011;4349;47.552;8.904;2024-03-08T02:43:41;26.83;;;21.33;;
8622;SDS011;4349;47.552;8.904;2024-03-08T02:46:09;27.53;;;20.60;;
8622;SDS011;4349;47.552;8.904;2024-03-08T02:48:36;25.73;;;19.13;;
8622;SDS011;4349;47.552;8.904;2024-03-08T02:51:06;23.43;;;18.00;;
8622;SDS011;4349;47.552;8.904;2024-03-08T02:53:33;23.70;;;17.60;;
8622;SDS011;4349;47.552;8.904;2024-03-08T02:56:03;24.20;;;18.27;;
8622;SDS011;4349;47.552;8.904;2024-03-08T02:58:31;25.20;;;19.30;;
8622;SDS011;4349;47.552;8.904;2024-03-08T03:00:58;24.97;;;18.87;;
8622;SDS011;4349;47.552;8.904;2024-03-08T03:03:26;25.20;;;19.63;;
8622;SDS011;4349;47.552;8.904;2024-03-08T03:05:54;24.93;;;19.53;;
8622;SDS011;4349;47.552;8.904;2024-03-08T03:08:22;29.33;;;21.33;;
8622;SDS011;4349;47.552;8.904;2024-03-08T03:10:50;24.50;;;18.00;;
8622;SDS011;4349;47.552;8.904;2024-03-08T03:13:19;26.37;;;19.40;;
8622;SDS011;4349;47.552;8.904;2024-03-08T03:15:46;24.50;;;19.50;;
8622;SDS011;4349;47.552;8.904;2024-03-08T03:18:14;22.57;;;18.33;;
8622;SDS011;4349;47.552;8.904;2024-03-08T03:20:42;23.40;;;18.07;;
8622;SDS011;4349;47.552;8.904;2024-03-08T03:23:10;26.13;;;18.60;;
8622;SDS011;4349;47.552;8.904;2024-03-08T03:25:42;24.80;;;18.90;;
8622;SDS011;4349;47.552;8.904;2024-03-08T03:28:10;26.40;;;19.30;;
8622;SDS011;4349;47.552;8.904;2024-03-08T03:30:43;25.20;;;19.27;;
8622;SDS011;4349;47.552;8.904;2024-03-08T03:33:10;24.43;;;18.87;;
8622;SDS011;4349;47.552;8.904;2024-03-08T03:35:39;22.50;;;17.53;;
8622;SDS011;4349;47.552;8.904;2024-03-08T03:38:07;26.77;;;20.20;;
8622;SDS011;4349;47.552;8.904;2024-03-08T03:40:37;23.67;;;18.57;;
8622;SDS011;4349;47.552;8.904;2024-03-08T03:43:05;26.53;;;19.40;;
8622;SDS011;4349;47.552;8.904;2024-03-08T03:45:33;25.03;;;18.43;;
8622;SDS011;4349;47.552;8.904;2024-03-08T03:48:05;23.60;;;17.77;;
8622;SDS011;4349;47.552;8.904;2024-03-08T03:50:36;27.00;;;19.27;;
8622;SDS011;4349;47.552;8.904;2024-03-08T03:53:04;21.97;;;16.63;;
8622;SDS011;4349;47.552;8.904;2024-03-08T03:55:33;24.57;;;18.50;;
8622;SDS011;4349;47.552;8.904;2024-03-08T03:58:03;25.13;;;18.23;;
8622;SDS011;4349;47.552;8.904;2024-03-08T04:00:31;25.10;;;18.43;;
8622;SDS011;4349;47.552;8.904;2024-03-08T04:02:59;26.67;;;18.90;;
8622;SDS011;4349;47.552;8.904;2024-03-08T04:05:29;26.83;;;19.27;;
8622;SDS011;4349;47.552;8.904;2024-03-08T04:07:57;25.17;;;18.30;;
8622;SDS011;4349;47.552;8.904;2024-03-08T04:10:25;25.50;;;18.97;;
8622;SDS011;4349;47.552;8.904;2024-03-08T04:12:52;27.03;;;19.83;;
8622;SDS011;4349;47.552;8.904;2024-03-08T04:15:20;29.53;;;19.97;;
8622;SDS011;4349;47.552;8.904;2024-03-08T04:17:47;24.70;;;18.97;;
8622;SDS011;4349;47.552;8.904;2024-03-08T04:20:15;24.43;;;17.40;;
8622;SDS011;4349;47.552;8.904;2024-03-08T04:22:45;23.27;;;18.13;;
8622;SDS011;4349;47.552;8.904;2024-03-08T04:25:14;24.43;;;18.33;;
8622;SDS011;4349;47.552;8.904;2024-03-08T04:27:42;23.50;;;17.33;;
8622;SDS011;4349;47.552;8.904;2024-03-08T04:30:11;23.97;;;18.43;;
8622;SDS011;4349;47.552;8.904;2024-03-08T04:32:39;25.53;;;18.50;;
8622;SDS011;4349;47.552;8.904;2024-03-08T04:35:07;27.20;;;19.00;;
8622;SDS011;4349;47.552;8.904;2024-03-08T04:37:35;26.70;;;19.47;;
8622;SDS011;4349;47.552;8.904;2024-03-08T04:40:05;24.97;;;17.63;;
8622;SDS011;4349;47.552;8.904;2024-03-08T04:42:32;22.80;;;16.87;;
8622;SDS011;4349;47.552;8.904;2024-03-08T04:45:01;22.53;;;17.03;;
8622;SDS011;4349;47.552;8.904;2024-03-08T04:47:28;21.20;;;16.20;;
8622;SDS011;4349;47.552;8.904;2024-03-08T04:49:57;21.60;;;16.13;;
8622;SDS011;4349;47.552;8.904;2024-03-08T04:52:24;22.23;;;17.03;;
8622;SDS011;4349;47.552;8.904;2024-03-08T04:54:52;25.37;;;17.30;;
8622;SDS011;4349;47.552;8.904;2024-03-08T04:57:21;25.23;;;17.93;;
8622;SDS011;4349;47.552;8.904;2024-03-08T04:59:48;22.97;;;18.10;;
8622;SDS011;4349;47.552;8.904;2024-03-08T05:02:16;21.87;;;17.27;;
8622;SDS011;4349;47.552;8.904;2024-03-08T05:04:44;21.23;;;16.63;;
8622;SDS011;4349;47.552;8.904;2024-03-08T05:07:11;21.53;;;17.17;;
8622;SDS011;4349;47.552;8.904;2024-03-08T05:09:39;26.47;;;18.97;;
8622;SDS011;4349;47.552;8.904;2024-03-08T05:12:07;23.37;;;18.03;;
8622;SDS011;4349;47.552;8.904;2024-03-08T05:14:36;23.43;;;18.10;;
8622;SDS011;4349;47.552;8.904;2024-03-08T05:17:04;23.03;;;17.63;;
8622;SDS011;4349;47.552;8.904;2024-03-08T05:19:33;23.20;;;18.13;;
8622;SDS011;4349;47.552;8.904;2024-03-08T05:22:01;21.20;;;16.43;;
8622;SDS011;4349;47.552;8.904;2024-03-08T05:24:29;20.37;;;16.23;;
8622;SDS011;4349;47.552;8.904;2024-03-08T05:26:57;21.67;;;16.80;;
8622;SDS011;4349;47.552;8.904;2024-03-08T05:29:26;22.67;;;17.87;;
8622;SDS011;4349;47.552;8.904;2024-03-08T05:31:56;21.63;;;17.10;;
8622;SDS011;4349;47.552;8.904;2024-03-08T05:34:24;22.20;;;16.70;;
8622;SDS011;4349;47.552;8.904;2024-03-08T05:36:52;21.57;;;16.80;;
8622;SDS011;4349;47.552;8.904;2024-03-08T05:39:21;21.07;;;16.67;;
8622;SDS011;4349;47.552;8.904;2024-03-08T05:41:49;21.30;;;16.70;;
8622;SDS011;4349;47.552;8.904;2024-03-08T05:44:17;19.97;;;16.10;;
8622;SDS011;4349;47.552;8.904;2024-03-08T05:46:45;21.30;;;16.07;;
8622;SDS011;4349;47.552;8.904;2024-03-08T05:49:15;21.83;;;16.53;;
8622;SDS011;4349;47.552;8.904;2024-03-08T05:51:43;22.80;;;17.13;;
8622;SDS011;4349;47.552;8.904;2024-03-08T05:54:10;21.00;;;16.37;;
8622;SDS011;4349;47.552;8.904;2024-03-08T05:56:42;20.97;;;16.67;;
8622;SDS011;4349;47.552;8.904;2024-03-08T05:59:11;22.53;;;17.73;;
8622;SDS011;4349;47.552;8.904;2024-03-08T06:01:40;19.03;;;14.97;;
8622;SDS011;4349;47.552;8.904;2024-03-08T06:04:09;23.13;;;17.80;;
8622;SDS011;4349;47.552;8.904;2024-03-08T06:06:39;23.17;;;17.67;;
8622;SDS011;4349;47.552;8.904;2024-03-08T06:09:07;21.63;;;17.43;;
8622;SDS011;4349;47.552;8.904;2024-03-08T06:11:39;20.53;;;16.30;;
8622;SDS011;4349;47.552;8.904;2024-03-08T06:14:07;22.57;;;16.87;;
8622;SDS011;4349;47.552;8.904;2024-03-08T06:16:35;23.57;;;17.17;;
8622;SDS011;4349;47.552;8.904;2024-03-08T06:19:04;24.37;;;17.60;;
8622;SDS011;4349;47.552;8.904;2024-03-08T06:21:32;20.30;;;16.40;;
8622;SDS011;4349;47.552;8.904;2024-03-08T06:24:01;19.07;;;16.07;;
8622;SDS011;4349;47.552;8.904;2024-03-08T06:26:28;19.20;;;15.27;;
8622;SDS011;4349;47.552;8.904;2024-03-08T06:28:57;22.67;;;17.73;;
8622;SDS011;4349;47.552;8.904;2024-03-08T06:31:25;22.73;;;17.67;;
8622;SDS011;4349;47.552;8.904;2024-03-08T06:33:53;21.63;;;17.20;;
8622;SDS011;4349;47.552;8.904;2024-03-08T06:36:22;22.60;;;17.13;;
8622;SDS011;4349;47.552;8.904;2024-03-08T06:38:51;20.10;;;16.87;;
8622;SDS011;4349;47.552;8.904;2024-03-08T06:41:20;24.03;;;17.67;;
8622;SDS011;4349;47.552;8.904;2024-03-08T06:43:48;21.33;;;16.47;;
8622;SDS011;4349;47.552;8.904;2024-03-08T06:46:18;21.30;;;16.20;;
8622;SDS011;4349;47.552;8.904;2024-03-08T06:48:47;19.53;;;15.90;;
8622;SDS011;4349;47.552;8.904;2024-03-08T06:51:15;19.77;;;15.57;;
8622;SDS011;4349;47.552;8.904;2024-03-08T06:53:43;22.33;;;16.97;;
8622;SDS011;4349;47.552;8.904;2024-03-08T06:56:11;22.57;;;16.67;;
8622;SDS011;4349;47.552;8.904;2024-03-08T06:58:40;18.90;;;15.33;;
8622;SDS011;4349;47.552;8.904;2024-03-08T07:01:08;20.53;;;16.30;;
8622;SDS011;4349;47.552;8.904;2024-03-08T07:03:41;19.57;;;15.40;;
8622;SDS011;4349;47.552;8.904;2024-03-08T07:06:10;20.60;;;16.30;;
8622;SDS011;4349;47.552;8.904;2024-03-08T07:08:38;19.97;;;15.60;;
8622;SDS011;4349;47.552;8.904;2024-03-08T07:11:06;22.87;;;17.07;;
8622;SDS011;4349;47.552;8.904;2024-03-08T07:13:34;22.53;;;16.97;;
8622;SDS011;4349;47.552;8.904;2024-03-08T07:16:03;23.03;;;17.17;;
8622;SDS011;4349;47.552;8.904;2024-03-08T07:18:31;18.67;;;15.43;;
8622;SDS011;4349;47.552;8.904;2024-03-08T07:21:00;19.87;;;15.20;;
8622;SDS011;4349;47.552;8.904;2024-03-08T07:23:30;20.87;;;15.97;;
8622;SDS011;4349;47.552;8.904;2024-03-08T07:26:15;21.83;;;15.80;;
8622;SDS011;4349;47.552;8.904;2024-03-08T07:28:42;19.93;;;16.00;;
8622;SDS011;4349;47.552;8.904;2024-03-08T07:31:11;20.00;;;15.13;;
8622;SDS011;4349;47.552;8.904;2024-03-08T07:33:47;20.47;;;15.90;;
8622;SDS011;4349;47.552;8.904;2024-03-08T07:36:16;23.37;;;17.13;;
8622;SDS011;4349;47.552;8.904;2024-03-08T07:38:44;20.93;;;15.70;;
8622;SDS011;4349;47.552;8.904;2024-03-08T07:41:13;19.07;;;14.93;;
8622;SDS011;4349;47.552;8.904;2024-03-08T07:43:42;21.97;;;15.50;;
8622;SDS011;4349;47.552;8.904;2024-03-08T07:46:11;22.60;;;16.70;;
8622;SDS011;4349;47.552;8.904;2024-03-08T07:48:39;19.57;;;15.73;;
8622;SDS011;4349;47.552;8.904;2024-03-08T07:51:07;21.03;;;16.73;;
8622;SDS011;4349;47.552;8.904;2024-03-08T07:53:36;25.20;;;17.40;;
8622;SDS011;4349;47.552;8.904;2024-03-08T07:56:04;20.03;;;16.43;;
8622;SDS011;4349;47.552;8.904;2024-03-08T07:58:32;21.53;;;15.67;;
8622;SDS011;4349;47.552;8.904;2024-03-08T08:01:01;21.73;;;17.80;;
8622;SDS011;4349;47.552;8.904;2024-03-08T08:03:30;20.47;;;15.57;;
8622;SDS011;4349;47.552;8.904;2024-03-08T08:05:58;18.83;;;14.50;;
8622;SDS011;4349;47.552;8.904;2024-03-08T08:08:25;22.03;;;16.60;;
8622;SDS011;4349;47.552;8.904;2024-03-08T08:10:53;19.43;;;14.90;;
8622;SDS011;4349;47.552;8.904;2024-03-08T08:13:21;18.83;;;14.93;;
8622;SDS011;4349;47.552;8.904;2024-03-08T08:15:49;17.73;;;14.73;;
8622;SDS011;4349;47.552;8.904;2024-03-08T08:18:17;19.37;;;14.10;;
8622;SDS011;4349;47.552;8.904;2024-03-08T08:20:49;22.67;;;16.63;;
8622;SDS011;4349;47.552;8.904;2024-03-08T08:23:16;23.40;;;16.53;;
8622;SDS011;4349;47.552;8.904;2024-03-08T08:25:45;21.37;;;16.47;;
8622;SDS011;4349;47.552;8.904;2024-03-08T08:28:14;20.30;;;15.17;;
8622;SDS011;4349;47.552;8.904;2024-03-08T08:30:43;22.27;;;16.00;;
8622;SDS011;4349;47.552;8.904;2024-03-08T08:33:11;19.80;;;15.43;;
8622;SDS011;4349;47.552;8.904;2024-03-08T08:35:40;21.43;;;15.27;;
8622;SDS011;4349;47.552;8.904;2024-03-08T08:38:08;19.40;;;15.47;;
8622;SDS011;4349;47.552;8.904;2024-03-08T08:40:36;18.33;;;13.73;;
8622;SDS011;4349;47.552;8.904;2024-03-08T08:43:04;21.47;;;15.47;;
8622;SDS011;4349;47.552;8.904;2024-03-08T08:45:32;20.57;;;16.07;;
8622;SDS011;4349;47.552;8.904;2024-03-08T08:47:59;24.57;;;18.13;;
8622;SDS011;4349;47.552;8.904;2024-03-08T08:50:27;20.83;;;16.93;;
8622;SDS011;4349;47.552;8.904;2024-03-08T08:52:55;19.03;;;14.30;;
8622;SDS011;4349;47.552;8.904;2024-03-08T08:55:24;23.13;;;17.20;;
8622;SDS011;4349;47.552;8.904;2024-03-08T08:57:53;23.50;;;17.27;;
8622;SDS011;4349;47.552;8.904;2024-03-08T09:00:21;18.20;;;14.67;;
8622;SDS011;4349;47.552;8.904;2024-03-08T09:02:53;19.40;;;15.00;;
8622;SDS011;4349;47.552;8.904;2024-03-08T09:05:21;19.63;;;15.70;;
8622;SDS011;4349;47.552;8.904;2024-03-08T09:07:50;22.40;;;16.40;;
8622;SDS011;4349;47.552;8.904;2024-03-08T09:10:19;17.93;;;13.57;;
8622;SDS011;4349;47.552;8.904;2024-03-08T09:12:49;17.80;;;14.27;;
8622;SDS011;4349;47.552;8.904;2024-03-08T09:15:16;21.63;;;14.97;;
8622;SDS011;4349;47.552;8.904;2024-03-08T09:17:46;18.53;;;14.83;;
8622;SDS011;4349;47.552;8.904;2024-03-08T09:20:15;20.23;;;14.90;;
8622;SDS011;4349;47.552;8.904;2024-03-08T09:22:43;20.37;;;14.97;;
8622;SDS011;4349;47.552;8.904;2024-03-08T09:25:11;18.13;;;14.17;;
8622;SDS011;4349;47.552;8.904;2024-03-08T09:27:39;19.43;;;14.90;;
8622;SDS011;4349;47.552;8.904;2024-03-08T09:30:09;21.97;;;16.20;;
8622;SDS011;4349;47.552;8.904;2024-03-08T09:32:39;18.67;;;14.40;;
8622;SDS011;4349;47.552;8.904;2024-03-08T09:35:07;28.57;;;20.87;;
8622;SDS011;4349;47.552;8.904;2024-03-08T09:37:35;22.43;;;17.03;;
8622;SDS011;4349;47.552;8.904;2024-03-08T09:40:04;19.27;;;14.47;;
8622;SDS011;4349;47.552;8.904;2024-03-08T09:42:36;19.43;;;14.73;;
8622;SDS011;4349;47.552;8.904;2024-03-08T09:45:05;18.97;;;14.57;;
8622;SDS011;4349;47.552;8.904;2024-03-08T09:47:38;17.33;;;13.63;;
8622;SDS011;4349;47.552;8.904;2024-03-08T09:50:07;18.10;;;14.87;;
8622;SDS011;4349;47.552;8.904;2024-03-08T09:52:35;18.50;;;14.27;;
8622;SDS011;4349;47.552;8.904;2024-03-08T09:55:04;17.43;;;14.60;;
8622;SDS011;4349;47.552;8.904;2024-03-08T09:57:32;18.37;;;13.93;;
8622;SDS011;4349;47.552;8.904;2024-03-08T10:00:00;18.10;;;14.50;;
8622;SDS011;4349;47.552;8.904;2024-03-08T10:02:29;17.03;;;13.80;;
8622;SDS011;4349;47.552;8.904;2024-03-08T10:04:59;17.60;;;14.40;;
8622;SDS011;4349;47.552;8.904;2024-03-08T10:07:29;19.80;;;14.43;;
8622;SDS011;4349;47.552;8.904;2024-03-08T10:09:57;17.43;;;13.57;;
8622;SDS011;4349;47.552;8.904;2024-03-08T10:12:25;15.63;;;12.30;;
8622;SDS011;4349;47.552;8.904;2024-03-08T10:14:54;17.80;;;13.27;;
8622;SDS011;4349;47.552;8.904;2024-03-08T10:17:22;17.17;;;13.87;;
8622;SDS011;4349;47.552;8.904;2024-03-08T10:19:50;16.33;;;13.53;;
8622;SDS011;4349;47.552;8.904;2024-03-08T10:22:21;18.67;;;14.23;;
8622;SDS011;4349;47.552;8.904;2024-03-08T10:24:48;16.43;;;12.77;;
8622;SDS011;4349;47.552;8.904;2024-03-08T10:27:16;17.87;;;13.63;;
8622;SDS011;4349;47.552;8.904;2024-03-08T10:29:46;17.70;;;13.97;;
8622;SDS011;4349;47.552;8.904;2024-03-08T10:32:14;18.17;;;13.87;;
8622;SDS011;4349;47.552;8.904;2024-03-08T10:34:42;17.77;;;14.03;;
8622;SDS011;4349;47.552;8.904;2024-03-08T10:37:12;16.13;;;12.43;;
8622;SDS011;4349;47.552;8.904;2024-03-08T10:39:45;18.10;;;14.20;;
8622;SDS011;4349;47.552;8.904;2024-03-08T10:42:19;18.83;;;13.90;;
8622;SDS011;4349;47.552;8.904;2024-03-08T10:44:53;20.93;;;14.83;;
8622;SDS011;4349;47.552;8.904;2024-03-08T10:47:26;18.77;;;14.17;;
8622;SDS011;4349;47.552;8.904;2024-03-08T10:49:59;18.33;;;14.10;;
8622;SDS011;4349;47.552;8.904;2024-03-08T10:52:30;16.77;;;13.60;;
8622;SDS011;4349;47.552;8.904;2024-03-08T10:55:00;19.10;;;14.30;;
8622;SDS011;4349;47.552;8.904;2024-03-08T10:57:28;19.60;;;15.37;;
8622;SDS011;4349;47.552;8.904;2024-03-08T10:59:57;18.83;;;14.57;;
8622;SDS011;4349;47.552;8.904;2024-03-08T11:02:25;16.17;;;13.23;;
8622;SDS011;4349;47.552;8.904;2024-03-08T11:04:53;17.07;;;13.63;;
8622;SDS011;4349;47.552;8.904;2024-03-08T11:07:23;18.30;;;14.90;;
8622;SDS011;4349;47.552;8.904;2024-03-08T11:09:54;16.20;;;12.73;;
8622;SDS011;4349;47.552;8.904;2024-03-08T11:12:25;18.03;;;14.27;;
8622;SDS011;4349;47.552;8.904;2024-03-08T11:14:56;16.33;;;13.97;;
8622;SDS011;4349;47.552;8.904;2024-03-08T11:17:40;17.93;;;14.30;;
8622;SDS011;4349;47.552;8.904;2024-03-08T11:20:08;17.07;;;13.83;;
8622;SDS011;4349;47.552;8.904;2024-03-08T11:22:42;15.23;;;12.47;;
8622;SDS011;4349;47.552;8.904;2024-03-08T11:25:30;16.00;;;13.23;;
8622;SDS011;4349;47.552;8.904;2024-03-08T11:28:07;14.53;;;12.10;;
8622;SDS011;4349;47.552;8.904;2024-03-08T11:30:35;17.50;;;13.80;;
8622;SDS011;4349;47.552;8.904;2024-03-08T11:33:04;16.83;;;13.80;;
8622;SDS011;4349;47.552;8.904;2024-03-08T11:35:37;15.13;;;13.50;;
8622;SDS011;4349;47.552;8.904;2024-03-08T11:38:04;15.13;;;13.27;;
8622;SDS011;4349;47.552;8.904;2024-03-08T11:40:33;17.43;;;13.93;;
8622;SDS011;4349;47.552;8.904;2024-03-08T11:43:00;15.53;;;13.20;;
8622;SDS011;4349;47.552;8.904;2024-03-08T11:45:31;15.87;;;12.83;;
8622;SDS011;4349;47.552;8.904;2024-03-08T11:47:59;17.17;;;13.90;;
8622;SDS011;4349;47.552;8.904;2024-03-08T11:50:27;15.50;;;13.17;;
8622;SDS011;4349;47.552;8.904;2024-03-08T11:52:59;18.33;;;13.60;;
8622;SDS011;4349;47.552;8.904;2024-03-08T11:55:27;16.70;;;13.67;;
8622;SDS011;4349;47.552;8.904;2024-03-08T11:57:59;16.60;;;13.37;;
8622;SDS011;4349;47.552;8.904;2024-03-08T12:00:27;16.50;;;13.53;;
8622;SDS011;4349;47.552;8.904;2024-03-08T12:03:03;14.93;;;12.57;;
8622;SDS011;4349;47.552;8.904;2024-03-08T12:05:31;15.90;;;13.03;;
8622;SDS011;4349;47.552;8.904;2024-03-08T12:07:59;16.00;;;12.60;;
8622;SDS011;4349;47.552;8.904;2024-03-08T12:10:28;16.20;;;14.07;;
8622;SDS011;4349;47.552;8.904;2024-03-08T12:12:56;15.70;;;13.60;;
8622;SDS011;4349;47.552;8.904;2024-03-08T12:15:25;13.57;;;12.17;;
8622;SDS011;4349;47.552;8.904;2024-03-08T12:17:54;15.33;;;13.00;;
8622;SDS011;4349;47.552;8.904;2024-03-08T12:20:24;16.10;;;13.23;;
8622;SDS011;4349;47.552;8.904;2024-03-08T12:22:52;15.57;;;13.10;;
8622;SDS011;4349;47.552;8.904;2024-03-08T12:25:25;15.03;;;13.27;;
8622;SDS011;4349;47.552;8.904;2024-03-08T12:27:53;14.60;;;12.50;;
8622;SDS011;4349;47.552;8.904;2024-03-08T12:30:23;15.53;;;13.30;;
8622;SDS011;4349;47.552;8.904;2024-03-08T12:32:53;15.93;;;12.60;;
8622;SDS011;4349;47.552;8.904;2024-03-08T12:35:25;16.00;;;12.50;;
8622;SDS011;4349;47.552;8.904;2024-03-08T12:37:53;14.43;;;12.57;;
8622;SDS011;4349;47.552;8.904;2024-03-08T12:40:25;14.50;;;12.20;;
8622;SDS011;4349;47.552;8.904;2024-03-08T12:42:54;13.47;;;12.07;;
8622;SDS011;4349;47.552;8.904;2024-03-08T12:45:22;13.50;;;11.30;;
8622;SDS011;4349;47.552;8.904;2024-03-08T12:47:50;14.37;;;12.13;;
8622;SDS011;4349;47.552;8.904;2024-03-08T12:50:19;13.33;;;11.23;;
8622;SDS011;4349;47.552;8.904;2024-03-08T12:52:48;14.37;;;11.93;;
8622;SDS011;4349;47.552;8.904;2024-03-08T12:55:19;16.27;;;12.77;;
8622;SDS011;4349;47.552;8.904;2024-03-08T12:57:47;12.93;;;11.53;;
8622;SDS011;4349;47.552;8.904;2024-03-08T13:00:15;14.07;;;12.10;;
8622;SDS011;4349;47.552;8.904;2024-03-08T13:02:46;15.17;;;12.73;;
8622;SDS011;4349;47.552;8.904;2024-03-08T13:05:13;14.87;;;12.53;;
8622;SDS011;4349;47.552;8.904;2024-03-08T13:07:41;17.47;;;12.77;;
8622;SDS011;4349;47.552;8.904;2024-03-08T13:10:14;12.57;;;11.30;;
8622;SDS011;4349;47.552;8.904;2024-03-08T13:12:42;13.17;;;11.07;;
8622;SDS011;4349;47.552;8.904;2024-03-08T13:15:10;12.33;;;11.03;;
8622;SDS011;4349;47.552;8.904;2024-03-08T13:17:41;15.03;;;11.90;;
8622;SDS011;4349;47.552;8.904;2024-03-08T13:20:11;13.43;;;11.57;;
8622;SDS011;4349;47.552;8.904;2024-03-08T13:22:50;13.60;;;12.13;;
8622;SDS011;4349;47.552;8.904;2024-03-08T13:25:19;12.20;;;10.77;;
8622;SDS011;4349;47.552;8.904;2024-03-08T13:27:47;13.13;;;11.37;;
8622;SDS011;4349;47.552;8.904;2024-03-08T13:30:15;13.63;;;11.93;;
8622;SDS011;4349;47.552;8.904;2024-03-08T13:32:44;12.73;;;11.33;;
8622;SDS011;4349;47.552;8.904;2024-03-08T13:35:12;12.77;;;11.43;;
8622;SDS011;4349;47.552;8.904;2024-03-08T13:37:40;12.23;;;11.03;;
8622;SDS011;4349;47.552;8.904;2024-03-08T13:40:10;12.70;;;11.40;;
8622;SDS011;4349;47.552;8.904;2024-03-08T13:42:41;13.40;;;11.63;;
8622;SDS011;4349;47.552;8.904;2024-03-08T13:45:09;12.60;;;10.87;;
8622;SDS011;4349;47.552;8.904;2024-03-08T13:47:38;11.47;;;10.20;;
8622;SDS011;4349;47.552;8.904;2024-03-08T13:50:07;13.27;;;11.87;;
8622;SDS011;4349;47.552;8.904;2024-03-08T13:52:38;14.47;;;12.97;;
8622;SDS011;4349;47.552;8.904;2024-03-08T13:55:06;13.87;;;11.40;;
8622;SDS011;4349;47.552;8.904;2024-03-08T13:57:34;12.90;;;11.57;;
8622;SDS011;4349;47.552;8.904;2024-03-08T14:00:03;13.80;;;12.27;;
8622;SDS011;4349;47.552;8.904;2024-03-08T14:02:38;13.93;;;11.73;;
8622;SDS011;4349;47.552;8.904;2024-03-08T14:05:07;15.30;;;13.10;;
8622;SDS011;4349;47.552;8.904;2024-03-08T14:07:35;15.10;;;12.57;;
8622;SDS011;4349;47.552;8.904;2024-03-08T14:10:03;14.03;;;12.33;;
8622;SDS011;4349;47.552;8.904;2024-03-08T14:12:33;13.43;;;11.83;;
8622;SDS011;4349;47.552;8.904;2024-03-08T14:15:03;15.00;;;11.97;;
8622;SDS011;4349;47.552;8.904;2024-03-08T14:17:32;15.97;;;13.20;;
8622;SDS011;4349;47.552;8.904;2024-03-08T14:20:00;14.83;;;12.80;;
8622;SDS011;4349;47.552;8.904;2024-03-08T14:22:27;13.60;;;12.17;;
8622;SDS011;4349;47.552;8.904;2024-03-08T14:24:57;13.10;;;11.70;;
8622;SDS011;4349;47.552;8.904;2024-03-08T14:27:28;12.67;;;11.37;;
8622;SDS011;4349;47.552;8.904;2024-03-08T14:29:55;15.77;;;13.77;;
8622;SDS011;4349;47.552;8.904;2024-03-08T14:32:25;13.67;;;12.13;;
8622;SDS011;4349;47.552;8.904;2024-03-08T14:34:54;14.97;;;12.57;;
8622;SDS011;4349;47.552;8.904;2024-03-08T14:37:22;14.53;;;12.37;;
8622;SDS011;4349;47.552;8.904;2024-03-08T14:39:54;13.10;;;11.77;;
8622;SDS011;4349;47.552;8.904;2024-03-08T14:42:22;13.77;;;12.37;;
8622;SDS011;4349;47.552;8.904;2024-03-08T14:44:50;12.83;;;11.53;;
8622;SDS011;4349;47.552;8.904;2024-03-08T14:47:20;15.57;;;13.23;;
8622;SDS011;4349;47.552;8.904;2024-03-08T14:49:49;14.83;;;13.30;;
8622;SDS011;4349;47.552;8.904;2024-03-08T14:52:17;12.83;;;11.57;;
8622;SDS011;4349;47.552;8.904;2024-03-08T14:55:02;15.50;;;13.20;;
8622;SDS011;4349;47.552;8.904;2024-03-08T14:57:30;14.40;;;12.80;;